sensor_id;sensor_type;location;lat;lon;timestamp;P1;durP1;ratioP1;P2;durP2;ratioP2
72621;SDS011;60665;53.506;9.582;2023-08-24T00:00:13;5.25;;;1.70;;
72621;SDS011;60665;53.506;9.582;2023-08-24T00:02:39;5.38;;;1.70;;
72621;SDS011;60665;53.506;9.582;2023-08-24T00:05:04;5.88;;;1.60;;
72621;SDS011;60665;53.506;9.582;2023-08-24T00:07:30;5.00;;;1.60;;
72621;SDS011;60665;53.506;9.582;2023-08-24T00:09:57;4.88;;;2.08;;
72621;SDS011;60665;53.506;9.582;2023-08-24T00:12:22;6.75;;;1.65;;
72621;SDS011;60665;53.506;9.582;2023-08-24T00:14:48;4.93;;;1.75;;
72621;SDS011;60665;53.506;9.582;2023-08-24T00:17:13;6.85;;;2.08;;
72621;SDS011;60665;53.506;9.582;2023-08-24T00:19:39;5.32;;;2.00;;
72621;SDS011;60665;53.506;9.582;2023-08-24T00:22:05;5.07;;;1.58;;
72621;SDS011;60665;53.506;9.582;2023-08-24T00:24:30;6.05;;;2.15;;
72621;SDS011;60665;53.506;9.582;2023-08-24T00:26:56;5.97;;;2.28;;
72621;SDS011;60665;53.506;9.582;2023-08-24T00:29:21;4.57;;;1.67;;
72621;SDS011;60665;53.506;9.582;2023-08-24T00:31:47;3.83;;;1.80;;
72621;SDS011;60665;53.506;9.582;2023-08-24T00:34:12;5.68;;;2.35;;
72621;SDS011;60665;53.506;9.582;2023-08-24T00:36:38;4.50;;;2.00;;
72621;SDS011;60665;53.506;9.582;2023-08-24T00:39:03;5.07;;;2.58;;
72621;SDS011;60665;53.506;9.582;2023-08-24T00:41:29;5.10;;;2.35;;
72621;SDS011;60665;53.506;9.582;2023-08-24T00:43:55;6.07;;;2.38;;
72621;SDS011;60665;53.506;9.582;2023-08-24T00:46:20;5.53;;;2.30;;
72621;SDS011;60665;53.506;9.582;2023-08-24T00:48:46;8.18;;;2.05;;
72621;SDS011;60665;53.506;9.582;2023-08-24T00:51:12;5.25;;;2.35;;
72621;SDS011;60665;53.506;9.582;2023-08-24T00:53:37;5.53;;;2.35;;
72621;SDS011;60665;53.506;9.582;2023-08-24T00:56:03;4.50;;;2.10;;
72621;SDS011;60665;53.506;9.582;2023-08-24T00:58:29;4.57;;;1.92;;
72621;SDS011;60665;53.506;9.582;2023-08-24T01:00:56;4.03;;;1.75;;
72621;SDS011;60665;53.506;9.582;2023-08-24T01:03:22;4.18;;;2.20;;
72621;SDS011;60665;53.506;9.582;2023-08-24T01:05:48;5.32;;;2.20;;
72621;SDS011;60665;53.506;9.582;2023-08-24T01:08:14;4.28;;;2.50;;
72621;SDS011;60665;53.506;9.582;2023-08-24T01:10:59;6.65;;;2.88;;
72621;SDS011;60665;53.506;9.582;2023-08-24T01:13:35;6.05;;;2.00;;
72621;SDS011;60665;53.506;9.582;2023-08-24T01:16:25;6.38;;;2.15;;
72621;SDS011;60665;53.506;9.582;2023-08-24T01:21:19;4.50;;;1.90;;
72621;SDS011;60665;53.506;9.582;2023-08-24T01:24:10;4.60;;;1.63;;
72621;SDS011;60665;53.506;9.582;2023-08-24T01:26:42;3.83;;;2.08;;
72621;SDS011;60665;53.506;9.582;2023-08-24T01:29:08;5.22;;;1.80;;
72621;SDS011;60665;53.506;9.582;2023-08-24T01:31:35;4.90;;;2.17;;
72621;SDS011;60665;53.506;9.582;2023-08-24T01:34:00;4.25;;;1.80;;
72621;SDS011;60665;53.506;9.582;2023-08-24T01:36:26;4.20;;;1.88;;
72621;SDS011;60665;53.506;9.582;2023-08-24T01:38:59;4.32;;;2.03;;
72621;SDS011;60665;53.506;9.582;2023-08-24T01:41:32;3.78;;;1.90;;
72621;SDS011;60665;53.506;9.582;2023-08-24T01:44:03;3.50;;;1.90;;
72621;SDS011;60665;53.506;9.582;2023-08-24T01:46:29;6.43;;;1.70;;
72621;SDS011;60665;53.506;9.582;2023-08-24T01:48:56;3.85;;;1.70;;
72621;SDS011;60665;53.506;9.582;2023-08-24T01:51:21;4.80;;;1.90;;
72621;SDS011;60665;53.506;9.582;2023-08-24T01:53:48;4.28;;;2.10;;
72621;SDS011;60665;53.506;9.582;2023-08-24T01:56:15;5.00;;;2.28;;
72621;SDS011;60665;53.506;9.582;2023-08-24T01:58:41;7.35;;;1.90;;
72621;SDS011;60665;53.506;9.582;2023-08-24T02:01:07;4.28;;;1.77;;
72621;SDS011;60665;53.506;9.582;2023-08-24T02:03:33;4.40;;;2.00;;
72621;SDS011;60665;53.506;9.582;2023-08-24T02:05:58;6.18;;;2.03;;
72621;SDS011;60665;53.506;9.582;2023-08-24T02:08:23;5.15;;;2.17;;
72621;SDS011;60665;53.506;9.582;2023-08-24T02:10:49;5.45;;;1.73;;
72621;SDS011;60665;53.506;9.582;2023-08-24T02:13:14;4.85;;;1.98;;
72621;SDS011;60665;53.506;9.582;2023-08-24T02:15:40;4.78;;;1.80;;
72621;SDS011;60665;53.506;9.582;2023-08-24T02:18:06;5.55;;;2.42;;
72621;SDS011;60665;53.506;9.582;2023-08-24T02:20:34;4.70;;;2.40;;
72621;SDS011;60665;53.506;9.582;2023-08-24T02:23:00;5.57;;;2.10;;
72621;SDS011;60665;53.506;9.582;2023-08-24T02:25:26;4.13;;;2.17;;
72621;SDS011;60665;53.506;9.582;2023-08-24T02:27:52;6.05;;;1.52;;
72621;SDS011;60665;53.506;9.582;2023-08-24T02:30:17;5.00;;;2.25;;
72621;SDS011;60665;53.506;9.582;2023-08-24T02:32:42;4.50;;;2.13;;
72621;SDS011;60665;53.506;9.582;2023-08-24T02:35:08;4.80;;;2.00;;
72621;SDS011;60665;53.506;9.582;2023-08-24T02:37:33;5.82;;;2.10;;
72621;SDS011;60665;53.506;9.582;2023-08-24T02:39:59;4.95;;;1.70;;
72621;SDS011;60665;53.506;9.582;2023-08-24T02:42:24;5.00;;;1.85;;
72621;SDS011;60665;53.506;9.582;2023-08-24T02:44:50;4.97;;;1.85;;
72621;SDS011;60665;53.506;9.582;2023-08-24T02:47:15;4.75;;;2.13;;
72621;SDS011;60665;53.506;9.582;2023-08-24T02:49:40;5.78;;;2.85;;
72621;SDS011;60665;53.506;9.582;2023-08-24T02:52:06;4.68;;;2.22;;
72621;SDS011;60665;53.506;9.582;2023-08-24T02:54:31;4.07;;;2.05;;
72621;SDS011;60665;53.506;9.582;2023-08-24T02:56:57;4.28;;;2.08;;
72621;SDS011;60665;53.506;9.582;2023-08-24T02:59:22;6.78;;;2.20;;
72621;SDS011;60665;53.506;9.582;2023-08-24T03:01:48;4.35;;;1.95;;
72621;SDS011;60665;53.506;9.582;2023-08-24T03:04:14;4.78;;;1.90;;
72621;SDS011;60665;53.506;9.582;2023-08-24T03:06:39;4.57;;;1.88;;
72621;SDS011;60665;53.506;9.582;2023-08-24T03:09:04;5.90;;;2.25;;
72621;SDS011;60665;53.506;9.582;2023-08-24T03:11:30;4.75;;;2.05;;
72621;SDS011;60665;53.506;9.582;2023-08-24T03:13:55;4.25;;;1.95;;
72621;SDS011;60665;53.506;9.582;2023-08-24T03:16:20;4.30;;;2.10;;
72621;SDS011;60665;53.506;9.582;2023-08-24T03:18:46;5.72;;;1.92;;
72621;SDS011;60665;53.506;9.582;2023-08-24T03:21:12;6.57;;;1.90;;
72621;SDS011;60665;53.506;9.582;2023-08-24T03:23:37;4.97;;;1.70;;
72621;SDS011;60665;53.506;9.582;2023-08-24T03:26:03;4.63;;;1.80;;
72621;SDS011;60665;53.506;9.582;2023-08-24T03:28:28;4.50;;;1.60;;
72621;SDS011;60665;53.506;9.582;2023-08-24T03:30:54;4.25;;;1.40;;
72621;SDS011;60665;53.506;9.582;2023-08-24T03:33:20;4.10;;;1.48;;
72621;SDS011;60665;53.506;9.582;2023-08-24T03:35:46;3.53;;;1.60;;
72621;SDS011;60665;53.506;9.582;2023-08-24T03:38:12;3.60;;;1.42;;
72621;SDS011;60665;53.506;9.582;2023-08-24T03:40:38;2.97;;;1.23;;
72621;SDS011;60665;53.506;9.582;2023-08-24T03:43:04;3.22;;;1.50;;
72621;SDS011;60665;53.506;9.582;2023-08-24T03:45:29;3.13;;;1.75;;
72621;SDS011;60665;53.506;9.582;2023-08-24T03:47:55;4.57;;;1.70;;
72621;SDS011;60665;53.506;9.582;2023-08-24T03:50:20;3.95;;;1.52;;
72621;SDS011;60665;53.506;9.582;2023-08-24T03:52:47;3.55;;;1.83;;
72621;SDS011;60665;53.506;9.582;2023-08-24T03:55:14;3.72;;;2.00;;
72621;SDS011;60665;53.506;9.582;2023-08-24T03:57:40;4.57;;;1.63;;
72621;SDS011;60665;53.506;9.582;2023-08-24T04:00:05;3.78;;;2.00;;
72621;SDS011;60665;53.506;9.582;2023-08-24T04:02:35;3.30;;;1.50;;
72621;SDS011;60665;53.506;9.582;2023-08-24T04:05:01;4.95;;;2.33;;
72621;SDS011;60665;53.506;9.582;2023-08-24T04:07:27;3.45;;;1.52;;
72621;SDS011;60665;53.506;9.582;2023-08-24T04:09:52;3.53;;;1.90;;
72621;SDS011;60665;53.506;9.582;2023-08-24T04:12:17;4.50;;;2.28;;
72621;SDS011;60665;53.506;9.582;2023-08-24T04:14:43;3.58;;;1.98;;
72621;SDS011;60665;53.506;9.582;2023-08-24T04:17:08;5.20;;;2.10;;
72621;SDS011;60665;53.506;9.582;2023-08-24T04:19:35;4.60;;;2.35;;
72621;SDS011;60665;53.506;9.582;2023-08-24T04:22:02;4.28;;;2.10;;
72621;SDS011;60665;53.506;9.582;2023-08-24T04:24:28;4.70;;;1.75;;
72621;SDS011;60665;53.506;9.582;2023-08-24T04:26:54;6.40;;;2.47;;
72621;SDS011;60665;53.506;9.582;2023-08-24T04:29:19;3.88;;;1.75;;
72621;SDS011;60665;53.506;9.582;2023-08-24T04:31:44;3.80;;;2.10;;
72621;SDS011;60665;53.506;9.582;2023-08-24T04:34:10;3.05;;;1.52;;
72621;SDS011;60665;53.506;9.582;2023-08-24T04:36:36;2.80;;;1.50;;
72621;SDS011;60665;53.506;9.582;2023-08-24T04:39:02;6.05;;;1.70;;
72621;SDS011;60665;53.506;9.582;2023-08-24T04:41:27;3.70;;;1.95;;
72621;SDS011;60665;53.506;9.582;2023-08-24T04:43:52;3.38;;;1.73;;
72621;SDS011;60665;53.506;9.582;2023-08-24T04:46:18;4.15;;;1.70;;
72621;SDS011;60665;53.506;9.582;2023-08-24T04:48:43;3.58;;;1.73;;
72621;SDS011;60665;53.506;9.582;2023-08-24T04:51:09;3.97;;;1.73;;
72621;SDS011;60665;53.506;9.582;2023-08-24T04:53:34;3.17;;;1.60;;
72621;SDS011;60665;53.506;9.582;2023-08-24T04:55:59;3.40;;;1.50;;
72621;SDS011;60665;53.506;9.582;2023-08-24T04:58:25;3.40;;;1.95;;
72621;SDS011;60665;53.506;9.582;2023-08-24T05:00:51;3.67;;;1.75;;
72621;SDS011;60665;53.506;9.582;2023-08-24T05:03:16;3.97;;;2.05;;
72621;SDS011;60665;53.506;9.582;2023-08-24T05:05:42;3.65;;;1.90;;
72621;SDS011;60665;53.506;9.582;2023-08-24T05:08:07;3.83;;;2.08;;
72621;SDS011;60665;53.506;9.582;2023-08-24T05:10:36;3.85;;;2.30;;
72621;SDS011;60665;53.506;9.582;2023-08-24T05:13:01;5.38;;;1.98;;
72621;SDS011;60665;53.506;9.582;2023-08-24T05:15:27;4.78;;;2.60;;
72621;SDS011;60665;53.506;9.582;2023-08-24T05:17:53;4.97;;;2.75;;
72621;SDS011;60665;53.506;9.582;2023-08-24T05:20:21;4.57;;;2.53;;
72621;SDS011;60665;53.506;9.582;2023-08-24T05:22:47;5.38;;;2.75;;
72621;SDS011;60665;53.506;9.582;2023-08-24T05:25:12;4.72;;;2.42;;
72621;SDS011;60665;53.506;9.582;2023-08-24T05:27:38;5.25;;;2.22;;
72621;SDS011;60665;53.506;9.582;2023-08-24T05:30:04;5.35;;;2.85;;
72621;SDS011;60665;53.506;9.582;2023-08-24T05:32:30;4.07;;;2.03;;
72621;SDS011;60665;53.506;9.582;2023-08-24T05:34:56;3.85;;;1.95;;
72621;SDS011;60665;53.506;9.582;2023-08-24T05:37:21;3.92;;;2.25;;
72621;SDS011;60665;53.506;9.582;2023-08-24T05:39:47;4.45;;;2.17;;
72621;SDS011;60665;53.506;9.582;2023-08-24T05:42:12;4.45;;;2.35;;
72621;SDS011;60665;53.506;9.582;2023-08-24T05:44:37;5.15;;;2.97;;
72621;SDS011;60665;53.506;9.582;2023-08-24T05:47:03;6.15;;;3.20;;
72621;SDS011;60665;53.506;9.582;2023-08-24T05:49:28;6.95;;;3.20;;
72621;SDS011;60665;53.506;9.582;2023-08-24T05:51:54;5.55;;;2.60;;
72621;SDS011;60665;53.506;9.582;2023-08-24T05:54:19;5.60;;;3.03;;
72621;SDS011;60665;53.506;9.582;2023-08-24T05:56:45;8.32;;;3.65;;
72621;SDS011;60665;53.506;9.582;2023-08-24T05:59:11;8.25;;;3.85;;
72621;SDS011;60665;53.506;9.582;2023-08-24T06:01:36;11.50;;;4.30;;
72621;SDS011;60665;53.506;9.582;2023-08-24T06:04:06;6.70;;;4.07;;
72621;SDS011;60665;53.506;9.582;2023-08-24T06:06:32;9.52;;;4.25;;
72621;SDS011;60665;53.506;9.582;2023-08-24T06:08:57;7.35;;;4.28;;
72621;SDS011;60665;53.506;9.582;2023-08-24T06:11:23;8.38;;;4.47;;
72621;SDS011;60665;53.506;9.582;2023-08-24T06:13:49;12.55;;;5.95;;
72621;SDS011;60665;53.506;9.582;2023-08-24T06:16:14;13.25;;;6.53;;
72621;SDS011;60665;53.506;9.582;2023-08-24T06:18:40;11.35;;;6.32;;
72621;SDS011;60665;53.506;9.582;2023-08-24T06:21:05;14.68;;;7.47;;
72621;SDS011;60665;53.506;9.582;2023-08-24T06:23:30;12.38;;;6.95;;
72621;SDS011;60665;53.506;9.582;2023-08-24T06:25:56;13.27;;;6.90;;
72621;SDS011;60665;53.506;9.582;2023-08-24T06:28:21;16.83;;;8.80;;
72621;SDS011;60665;53.506;9.582;2023-08-24T06:30:46;14.85;;;7.97;;
72621;SDS011;60665;53.506;9.582;2023-08-24T06:33:13;15.65;;;8.82;;
72621;SDS011;60665;53.506;9.582;2023-08-24T06:35:38;16.73;;;7.97;;
72621;SDS011;60665;53.506;9.582;2023-08-24T06:38:04;17.60;;;9.05;;
72621;SDS011;60665;53.506;9.582;2023-08-24T06:40:30;17.48;;;9.07;;
72621;SDS011;60665;53.506;9.582;2023-08-24T06:42:56;15.45;;;8.15;;
72621;SDS011;60665;53.506;9.582;2023-08-24T06:45:21;15.23;;;8.73;;
72621;SDS011;60665;53.506;9.582;2023-08-24T06:47:47;14.05;;;8.45;;
72621;SDS011;60665;53.506;9.582;2023-08-24T06:50:13;14.68;;;7.90;;
72621;SDS011;60665;53.506;9.582;2023-08-24T06:52:40;13.90;;;8.02;;
72621;SDS011;60665;53.506;9.582;2023-08-24T06:55:06;11.70;;;7.32;;
72621;SDS011;60665;53.506;9.582;2023-08-24T06:57:32;12.52;;;7.07;;
72621;SDS011;60665;53.506;9.582;2023-08-24T06:59:58;13.38;;;7.00;;
72621;SDS011;60665;53.506;9.582;2023-08-24T07:02:23;12.65;;;6.18;;
72621;SDS011;60665;53.506;9.582;2023-08-24T07:04:49;12.98;;;6.03;;
72621;SDS011;60665;53.506;9.582;2023-08-24T07:07:14;10.27;;;4.90;;
72621;SDS011;60665;53.506;9.582;2023-08-24T07:09:39;7.97;;;4.50;;
72621;SDS011;60665;53.506;9.582;2023-08-24T07:12:05;7.43;;;3.67;;
72621;SDS011;60665;53.506;9.582;2023-08-24T07:14:35;8.88;;;4.07;;
72621;SDS011;60665;53.506;9.582;2023-08-24T07:17:01;8.48;;;3.65;;
72621;SDS011;60665;53.506;9.582;2023-08-24T07:19:26;8.98;;;4.10;;
72621;SDS011;60665;53.506;9.582;2023-08-24T07:21:52;7.88;;;3.35;;
72621;SDS011;60665;53.506;9.582;2023-08-24T07:24:17;9.30;;;4.25;;
72621;SDS011;60665;53.506;9.582;2023-08-24T07:26:46;7.63;;;4.20;;
72621;SDS011;60665;53.506;9.582;2023-08-24T07:29:12;7.25;;;3.80;;
72621;SDS011;60665;53.506;9.582;2023-08-24T07:31:37;6.32;;;3.03;;
72621;SDS011;60665;53.506;9.582;2023-08-24T07:34:03;7.97;;;3.45;;
72621;SDS011;60665;53.506;9.582;2023-08-24T07:36:29;6.95;;;3.08;;
72621;SDS011;60665;53.506;9.582;2023-08-24T07:38:55;5.63;;;2.53;;
72621;SDS011;60665;53.506;9.582;2023-08-24T07:41:20;8.00;;;3.08;;
72621;SDS011;60665;53.506;9.582;2023-08-24T07:43:46;5.95;;;2.70;;
72621;SDS011;60665;53.506;9.582;2023-08-24T07:46:11;8.13;;;3.42;;
72621;SDS011;60665;53.506;9.582;2023-08-24T07:48:36;6.65;;;2.30;;
72621;SDS011;60665;53.506;9.582;2023-08-24T07:51:02;9.00;;;2.80;;
72621;SDS011;60665;53.506;9.582;2023-08-24T07:53:27;6.47;;;1.83;;
72621;SDS011;60665;53.506;9.582;2023-08-24T07:55:54;5.97;;;2.10;;
72621;SDS011;60665;53.506;9.582;2023-08-24T07:58:23;10.15;;;2.80;;
72621;SDS011;60665;53.506;9.582;2023-08-24T08:00:49;5.38;;;1.90;;
72621;SDS011;60665;53.506;9.582;2023-08-24T08:03:16;5.57;;;1.98;;
72621;SDS011;60665;53.506;9.582;2023-08-24T08:05:41;5.63;;;2.20;;
72621;SDS011;60665;53.506;9.582;2023-08-24T08:08:06;7.97;;;2.53;;
72621;SDS011;60665;53.506;9.582;2023-08-24T08:10:32;4.80;;;1.73;;
72621;SDS011;60665;53.506;9.582;2023-08-24T08:12:57;6.45;;;2.10;;
72621;SDS011;60665;53.506;9.582;2023-08-24T08:15:22;5.32;;;1.70;;
72621;SDS011;60665;53.506;9.582;2023-08-24T08:17:48;5.30;;;2.20;;
72621;SDS011;60665;53.506;9.582;2023-08-24T08:20:14;6.95;;;2.33;;
72621;SDS011;60665;53.506;9.582;2023-08-24T08:22:40;4.78;;;1.80;;
72621;SDS011;60665;53.506;9.582;2023-08-24T08:25:06;6.18;;;1.83;;
72621;SDS011;60665;53.506;9.582;2023-08-24T08:27:31;4.65;;;1.85;;
72621;SDS011;60665;53.506;9.582;2023-08-24T08:29:58;5.45;;;1.65;;
72621;SDS011;60665;53.506;9.582;2023-08-24T08:32:23;4.45;;;1.77;;
72621;SDS011;60665;53.506;9.582;2023-08-24T08:34:52;5.50;;;1.98;;
72621;SDS011;60665;53.506;9.582;2023-08-24T08:37:19;4.85;;;2.33;;
72621;SDS011;60665;53.506;9.582;2023-08-24T08:39:44;7.13;;;2.08;;
72621;SDS011;60665;53.506;9.582;2023-08-24T08:42:16;8.27;;;2.03;;
72621;SDS011;60665;53.506;9.582;2023-08-24T08:44:41;5.25;;;2.30;;
72621;SDS011;60665;53.506;9.582;2023-08-24T08:47:11;5.40;;;2.08;;
72621;SDS011;60665;53.506;9.582;2023-08-24T08:49:38;3.95;;;1.33;;
72621;SDS011;60665;53.506;9.582;2023-08-24T08:52:04;5.35;;;1.85;;
72621;SDS011;60665;53.506;9.582;2023-08-24T08:54:31;4.93;;;1.80;;
72621;SDS011;60665;53.506;9.582;2023-08-24T08:56:58;5.55;;;1.30;;
72621;SDS011;60665;53.506;9.582;2023-08-24T08:59:24;3.28;;;1.30;;
72621;SDS011;60665;53.506;9.582;2023-08-24T09:01:54;4.80;;;1.13;;
72621;SDS011;60665;53.506;9.582;2023-08-24T09:04:20;2.97;;;1.23;;
72621;SDS011;60665;53.506;9.582;2023-08-24T09:06:45;5.50;;;1.10;;
72621;SDS011;60665;53.506;9.582;2023-08-24T09:09:11;2.63;;;1.08;;
72621;SDS011;60665;53.506;9.582;2023-08-24T09:11:37;3.85;;;1.05;;
72621;SDS011;60665;53.506;9.582;2023-08-24T09:14:04;3.63;;;1.00;;
72621;SDS011;60665;53.506;9.582;2023-08-24T09:16:29;5.30;;;1.10;;
72621;SDS011;60665;53.506;9.582;2023-08-24T09:18:55;5.25;;;1.45;;
72621;SDS011;60665;53.506;9.582;2023-08-24T09:21:20;2.92;;;0.90;;
72621;SDS011;60665;53.506;9.582;2023-08-24T09:23:52;3.33;;;1.25;;
72621;SDS011;60665;53.506;9.582;2023-08-24T09:26:26;4.15;;;0.93;;
72621;SDS011;60665;53.506;9.582;2023-08-24T09:28:55;3.53;;;0.90;;
72621;SDS011;60665;53.506;9.582;2023-08-24T09:31:22;4.10;;;1.42;;
72621;SDS011;60665;53.506;9.582;2023-08-24T09:33:48;4.70;;;1.60;;
72621;SDS011;60665;53.506;9.582;2023-08-24T09:36:13;6.40;;;1.55;;
72621;SDS011;60665;53.506;9.582;2023-08-24T09:38:45;3.45;;;1.10;;
72621;SDS011;60665;53.506;9.582;2023-08-24T09:41:11;4.53;;;1.88;;
72621;SDS011;60665;53.506;9.582;2023-08-24T09:43:36;3.88;;;1.90;;
72621;SDS011;60665;53.506;9.582;2023-08-24T09:46:01;4.35;;;1.95;;
72621;SDS011;60665;53.506;9.582;2023-08-24T09:48:28;4.72;;;1.42;;
72621;SDS011;60665;53.506;9.582;2023-08-24T09:50:53;6.60;;;1.73;;
72621;SDS011;60665;53.506;9.582;2023-08-24T09:55:59;4.53;;;1.45;;
72621;SDS011;60665;53.506;9.582;2023-08-24T09:58:25;5.65;;;1.80;;
72621;SDS011;60665;53.506;9.582;2023-08-24T10:00:51;5.95;;;1.73;;
72621;SDS011;60665;53.506;9.582;2023-08-24T10:03:20;4.97;;;2.00;;
72621;SDS011;60665;53.506;9.582;2023-08-24T10:05:56;7.63;;;1.48;;
72621;SDS011;60665;53.506;9.582;2023-08-24T10:08:29;3.80;;;1.50;;
72621;SDS011;60665;53.506;9.582;2023-08-24T10:11:00;4.95;;;1.50;;
72621;SDS011;60665;53.506;9.582;2023-08-24T10:13:31;4.88;;;1.35;;
72621;SDS011;60665;53.506;9.582;2023-08-24T10:15:57;5.10;;;2.00;;
72621;SDS011;60665;53.506;9.582;2023-08-24T10:18:23;4.93;;;1.67;;
72621;SDS011;60665;53.506;9.582;2023-08-24T10:20:49;6.13;;;2.30;;
72621;SDS011;60665;53.506;9.582;2023-08-24T10:23:15;5.78;;;1.73;;
72621;SDS011;60665;53.506;9.582;2023-08-24T10:25:41;7.05;;;1.80;;
72621;SDS011;60665;53.506;9.582;2023-08-24T10:28:07;6.07;;;1.90;;
72621;SDS011;60665;53.506;9.582;2023-08-24T10:30:34;4.60;;;2.30;;
72621;SDS011;60665;53.506;9.582;2023-08-24T10:33:00;4.90;;;1.88;;
72621;SDS011;60665;53.506;9.582;2023-08-24T10:35:26;6.15;;;2.70;;
72621;SDS011;60665;53.506;9.582;2023-08-24T10:37:52;7.05;;;2.22;;
72621;SDS011;60665;53.506;9.582;2023-08-24T10:40:31;7.30;;;1.83;;
72621;SDS011;60665;53.506;9.582;2023-08-24T10:43:04;6.20;;;2.28;;
72621;SDS011;60665;53.506;9.582;2023-08-24T10:48:29;5.45;;;2.22;;
72621;SDS011;60665;53.506;9.582;2023-08-24T10:51:22;6.63;;;2.28;;
72621;SDS011;60665;53.506;9.582;2023-08-24T10:53:52;7.00;;;2.60;;
72621;SDS011;60665;53.506;9.582;2023-08-24T10:56:52;4.97;;;2.28;;
72621;SDS011;60665;53.506;9.582;2023-08-24T10:59:17;6.03;;;2.60;;
72621;SDS011;60665;53.506;9.582;2023-08-24T11:01:55;6.20;;;2.90;;
72621;SDS011;60665;53.506;9.582;2023-08-24T11:04:21;6.78;;;2.25;;
72621;SDS011;60665;53.506;9.582;2023-08-24T11:06:50;4.97;;;2.88;;
72621;SDS011;60665;53.506;9.582;2023-08-24T11:09:17;6.05;;;2.90;;
72621;SDS011;60665;53.506;9.582;2023-08-24T11:11:54;5.28;;;2.70;;
72621;SDS011;60665;53.506;9.582;2023-08-24T11:14:28;4.53;;;2.17;;
72621;SDS011;60665;53.506;9.582;2023-08-24T11:16:56;8.25;;;2.30;;
72621;SDS011;60665;53.506;9.582;2023-08-24T11:19:23;5.15;;;2.38;;
72621;SDS011;60665;53.506;9.582;2023-08-24T11:21:49;4.80;;;2.67;;
72621;SDS011;60665;53.506;9.582;2023-08-24T11:24:14;5.78;;;2.45;;
72621;SDS011;60665;53.506;9.582;2023-08-24T11:26:44;6.32;;;2.33;;
72621;SDS011;60665;53.506;9.582;2023-08-24T11:29:11;7.35;;;2.17;;
72621;SDS011;60665;53.506;9.582;2023-08-24T11:31:37;6.40;;;2.15;;
72621;SDS011;60665;53.506;9.582;2023-08-24T11:34:02;3.20;;;2.00;;
72621;SDS011;60665;53.506;9.582;2023-08-24T11:36:29;6.47;;;2.40;;
72621;SDS011;60665;53.506;9.582;2023-08-24T11:38:56;8.95;;;2.40;;
72621;SDS011;60665;53.506;9.582;2023-08-24T11:41:23;5.53;;;1.42;;
72621;SDS011;60665;53.506;9.582;2023-08-24T11:43:48;6.95;;;2.15;;
72621;SDS011;60665;53.506;9.582;2023-08-24T11:46:17;6.28;;;2.28;;
72621;SDS011;60665;53.506;9.582;2023-08-24T11:48:43;7.15;;;2.10;;
72621;SDS011;60665;53.506;9.582;2023-08-24T11:51:12;4.53;;;2.10;;
72621;SDS011;60665;53.506;9.582;2023-08-24T11:53:39;4.80;;;2.20;;
72621;SDS011;60665;53.506;9.582;2023-08-24T11:58:31;4.75;;;2.10;;
72621;SDS011;60665;53.506;9.582;2023-08-24T12:00:56;7.43;;;3.08;;
72621;SDS011;60665;53.506;9.582;2023-08-24T12:03:22;5.55;;;1.83;;
72621;SDS011;60665;53.506;9.582;2023-08-24T12:05:47;4.22;;;2.10;;
72621;SDS011;60665;53.506;9.582;2023-08-24T12:08:13;4.38;;;2.38;;
72621;SDS011;60665;53.506;9.582;2023-08-24T12:10:44;4.93;;;2.17;;
72621;SDS011;60665;53.506;9.582;2023-08-24T12:13:11;4.35;;;1.75;;
72621;SDS011;60665;53.506;9.582;2023-08-24T12:15:37;4.80;;;2.00;;
72621;SDS011;60665;53.506;9.582;2023-08-24T12:18:12;5.13;;;1.52;;
72621;SDS011;60665;53.506;9.582;2023-08-24T12:20:39;4.70;;;2.00;;
72621;SDS011;60665;53.506;9.582;2023-08-24T12:23:05;5.85;;;1.52;;
72621;SDS011;60665;53.506;9.582;2023-08-24T12:25:35;4.57;;;2.00;;
72621;SDS011;60665;53.506;9.582;2023-08-24T12:28:08;5.38;;;2.50;;
72621;SDS011;60665;53.506;9.582;2023-08-24T12:30:48;4.85;;;1.85;;
72621;SDS011;60665;53.506;9.582;2023-08-24T12:35:46;5.07;;;1.92;;
72621;SDS011;60665;53.506;9.582;2023-08-24T12:38:12;5.20;;;1.90;;
72621;SDS011;60665;53.506;9.582;2023-08-24T12:40:37;5.93;;;2.35;;
72621;SDS011;60665;53.506;9.582;2023-08-24T12:43:03;4.10;;;2.00;;
72621;SDS011;60665;53.506;9.582;2023-08-24T12:45:28;4.78;;;1.95;;
72621;SDS011;60665;53.506;9.582;2023-08-24T12:47:54;4.47;;;1.73;;
72621;SDS011;60665;53.506;9.582;2023-08-24T12:50:19;4.57;;;1.60;;
72621;SDS011;60665;53.506;9.582;2023-08-24T12:52:44;4.65;;;1.80;;
72621;SDS011;60665;53.506;9.582;2023-08-24T12:55:10;7.32;;;2.05;;
72621;SDS011;60665;53.506;9.582;2023-08-24T12:57:35;4.53;;;1.42;;
72621;SDS011;60665;53.506;9.582;2023-08-24T13:00:01;5.35;;;2.03;;
72621;SDS011;60665;53.506;9.582;2023-08-24T13:02:26;4.07;;;1.42;;
72621;SDS011;60665;53.506;9.582;2023-08-24T13:04:51;6.40;;;1.88;;
72621;SDS011;60665;53.506;9.582;2023-08-24T13:07:17;3.47;;;1.33;;
72621;SDS011;60665;53.506;9.582;2023-08-24T13:09:42;5.15;;;1.48;;
72621;SDS011;60665;53.506;9.582;2023-08-24T13:12:08;4.72;;;1.42;;
72621;SDS011;60665;53.506;9.582;2023-08-24T13:14:33;3.45;;;1.50;;
72621;SDS011;60665;53.506;9.582;2023-08-24T13:16:58;4.85;;;2.15;;
72621;SDS011;60665;53.506;9.582;2023-08-24T13:19:24;4.10;;;1.40;;
72621;SDS011;60665;53.506;9.582;2023-08-24T13:21:49;4.28;;;1.67;;
72621;SDS011;60665;53.506;9.582;2023-08-24T13:24:14;6.07;;;1.70;;
72621;SDS011;60665;53.506;9.582;2023-08-24T13:26:40;5.18;;;1.45;;
72621;SDS011;60665;53.506;9.582;2023-08-24T13:29:05;4.38;;;1.50;;
72621;SDS011;60665;53.506;9.582;2023-08-24T13:31:31;4.57;;;1.70;;
72621;SDS011;60665;53.506;9.582;2023-08-24T13:33:56;6.72;;;1.63;;
72621;SDS011;60665;53.506;9.582;2023-08-24T13:36:21;4.32;;;1.70;;
72621;SDS011;60665;53.506;9.582;2023-08-24T13:38:47;3.30;;;1.33;;
72621;SDS011;60665;53.506;9.582;2023-08-24T13:41:14;5.05;;;1.60;;
72621;SDS011;60665;53.506;9.582;2023-08-24T13:43:40;3.33;;;1.58;;
72621;SDS011;60665;53.506;9.582;2023-08-24T13:46:06;5.35;;;1.65;;
72621;SDS011;60665;53.506;9.582;2023-08-24T13:48:32;3.13;;;1.33;;
72621;SDS011;60665;53.506;9.582;2023-08-24T13:51:00;4.35;;;1.30;;
72621;SDS011;60665;53.506;9.582;2023-08-24T13:53:26;6.28;;;1.60;;
72621;SDS011;60665;53.506;9.582;2023-08-24T13:55:51;4.35;;;1.42;;
72621;SDS011;60665;53.506;9.582;2023-08-24T13:58:17;5.03;;;1.40;;
72621;SDS011;60665;53.506;9.582;2023-08-24T14:00:42;3.75;;;1.35;;
72621;SDS011;60665;53.506;9.582;2023-08-24T14:03:07;5.65;;;1.55;;
72621;SDS011;60665;53.506;9.582;2023-08-24T14:05:37;4.22;;;1.42;;
72621;SDS011;60665;53.506;9.582;2023-08-24T14:08:03;3.78;;;1.60;;
72621;SDS011;60665;53.506;9.582;2023-08-24T14:10:29;4.57;;;1.42;;
72621;SDS011;60665;53.506;9.582;2023-08-24T14:12:54;4.50;;;1.60;;
72621;SDS011;60665;53.506;9.582;2023-08-24T14:15:20;7.70;;;1.90;;
72621;SDS011;60665;53.506;9.582;2023-08-24T14:17:45;8.40;;;1.73;;
72621;SDS011;60665;53.506;9.582;2023-08-24T14:20:11;7.25;;;1.90;;
72621;SDS011;60665;53.506;9.582;2023-08-24T14:22:37;4.88;;;2.13;;
72621;SDS011;60665;53.506;9.582;2023-08-24T14:25:03;4.43;;;1.60;;
72621;SDS011;60665;53.506;9.582;2023-08-24T14:27:29;4.88;;;2.10;;
72621;SDS011;60665;53.506;9.582;2023-08-24T14:29:54;6.35;;;2.55;;
72621;SDS011;60665;53.506;9.582;2023-08-24T14:32:19;4.70;;;2.00;;
72621;SDS011;60665;53.506;9.582;2023-08-24T14:34:45;3.30;;;1.50;;
72621;SDS011;60665;53.506;9.582;2023-08-24T14:37:10;5.70;;;1.83;;
72621;SDS011;60665;53.506;9.582;2023-08-24T14:39:36;5.30;;;1.90;;
72621;SDS011;60665;53.506;9.582;2023-08-24T14:42:01;7.20;;;2.45;;
72621;SDS011;60665;53.506;9.582;2023-08-24T14:44:28;5.38;;;1.73;;
72621;SDS011;60665;53.506;9.582;2023-08-24T14:46:53;7.45;;;2.20;;
72621;SDS011;60665;53.506;9.582;2023-08-24T14:49:19;6.18;;;1.65;;
72621;SDS011;60665;53.506;9.582;2023-08-24T14:51:45;6.18;;;1.77;;
72621;SDS011;60665;53.506;9.582;2023-08-24T14:54:11;6.50;;;2.25;;
72621;SDS011;60665;53.506;9.582;2023-08-24T14:56:39;6.95;;;2.22;;